sensor_id;sensor_type;location;lat;lon;timestamp;temperature;humidity
12460;DHT22;6295;49.452;8.466;2022-10-04T00:01:29;8.10;99.90
12460;DHT22;6295;49.452;8.466;2022-10-04T00:05:33;8.10;99.90
12460;DHT22;6295;49.452;8.466;2022-10-04T00:09:41;8.00;99.90
12460;DHT22;6295;49.452;8.466;2022-10-04T00:13:51;8.10;99.90
12460;DHT22;6295;49.452;8.466;2022-10-04T00:31:18;7.90;99.90
12460;DHT22;6295;49.452;8.466;2022-10-04T00:35:47;7.90;99.90
12460;DHT22;6295;49.452;8.466;2022-10-04T00:44:00;7.80;99.90
12460;DHT22;6295;49.452;8.466;2022-10-04T00:52:24;7.70;99.90
12460;DHT22;6295;49.452;8.466;2022-10-04T01:00:34;7.70;99.90
12460;DHT22;6295;49.452;8.466;2022-10-04T01:04:41;7.70;99.90
12460;DHT22;6295;49.452;8.466;2022-10-04T01:08:48;7.70;99.90
12460;DHT22;6295;49.452;8.466;2022-10-04T01:12:55;7.60;99.90
12460;DHT22;6295;49.452;8.466;2022-10-04T01:16:58;7.60;99.90
12460;DHT22;6295;49.452;8.466;2022-10-04T01:21:04;7.60;99.90
12460;DHT22;6295;49.452;8.466;2022-10-04T01:25:09;7.50;99.90
12460;DHT22;6295;49.452;8.466;2022-10-04T01:29:14;7.50;99.90
12460;DHT22;6295;49.452;8.466;2022-10-04T01:33:17;7.40;99.90
12460;DHT22;6295;49.452;8.466;2022-10-04T01:41:27;7.40;99.90
12460;DHT22;6295;49.452;8.466;2022-10-04T01:45:34;7.40;99.90
12460;DHT22;6295;49.452;8.466;2022-10-04T01:53:48;7.40;99.90
12460;DHT22;6295;49.452;8.466;2022-10-04T01:57:57;7.30;99.90
12460;DHT22;6295;49.452;8.466;2022-10-04T02:02:02;7.30;99.90
12460;DHT22;6295;49.452;8.466;2022-10-04T02:06:07;7.30;99.90
12460;DHT22;6295;49.452;8.466;2022-10-04T02:14:21;7.20;99.90
12460;DHT22;6295;49.452;8.466;2022-10-04T02:22:28;7.20;99.90
12460;DHT22;6295;49.452;8.466;2022-10-04T02:26:31;7.20;99.90
12460;DHT22;6295;49.452;8.466;2022-10-04T02:30:37;7.20;99.90
12460;DHT22;6295;49.452;8.466;2022-10-04T02:34:39;7.20;99.90
12460;DHT22;6295;49.452;8.466;2022-10-04T02:38:45;7.20;99.90
12460;DHT22;6295;49.452;8.466;2022-10-04T02:42:56;7.20;99.90
12460;DHT22;6295;49.452;8.466;2022-10-04T02:47:07;7.10;99.90
12460;DHT22;6295;49.452;8.466;2022-10-04T02:51:19;7.10;99.90
12460;DHT22;6295;49.452;8.466;2022-10-04T02:55:24;7.10;99.90
12460;DHT22;6295;49.452;8.466;2022-10-04T03:03:33;7.10;99.90
12460;DHT22;6295;49.452;8.466;2022-10-04T03:07:38;7.10;99.90
12460;DHT22;6295;49.452;8.466;2022-10-04T03:11:40;7.10;99.90
12460;DHT22;6295;49.452;8.466;2022-10-04T03:15:43;7.00;99.90
12460;DHT22;6295;49.452;8.466;2022-10-04T03:19:48;7.00;99.90
12460;DHT22;6295;49.452;8.466;2022-10-04T03:23:51;7.00;99.90
12460;DHT22;6295;49.452;8.466;2022-10-04T03:27:55;7.00;99.90
12460;DHT22;6295;49.452;8.466;2022-10-04T03:32:03;6.90;99.90
12460;DHT22;6295;49.452;8.466;2022-10-04T03:36:12;6.90;99.90
12460;DHT22;6295;49.452;8.466;2022-10-04T03:52:35;6.80;99.90
12460;DHT22;6295;49.452;8.466;2022-10-04T03:56:38;6.80;99.90
12460;DHT22;6295;49.452;8.466;2022-10-04T04:00:44;6.80;99.90
12460;DHT22;6295;49.452;8.466;2022-10-04T04:05:02;6.80;99.90
12460;DHT22;6295;49.452;8.466;2022-10-04T04:09:08;6.80;99.90
12460;DHT22;6295;49.452;8.466;2022-10-04T04:13:22;6.80;99.90
12460;DHT22;6295;49.452;8.466;2022-10-04T04:17:33;6.80;99.90
12460;DHT22;6295;49.452;8.466;2022-10-04T04:21:36;6.80;99.90
12460;DHT22;6295;49.452;8.466;2022-10-04T04:25:43;6.80;99.90
12460;DHT22;6295;49.452;8.466;2022-10-04T04:29:47;6.80;99.90
12460;DHT22;6295;49.452;8.466;2022-10-04T04:33:55;6.80;99.90
12460;DHT22;6295;49.452;8.466;2022-10-04T04:38:05;6.80;99.90
12460;DHT22;6295;49.452;8.466;2022-10-04T04:42:15;6.90;99.90
12460;DHT22;6295;49.452;8.466;2022-10-04T04:46:19;6.80;99.90
12460;DHT22;6295;49.452;8.466;2022-10-04T04:50:23;6.80;99.90
12460;DHT22;6295;49.452;8.466;2022-10-04T04:54:27;6.90;99.90
12460;DHT22;6295;49.452;8.466;2022-10-04T04:58:32;6.90;99.90
12460;DHT22;6295;49.452;8.466;2022-10-04T05:02:36;6.80;99.90
12460;DHT22;6295;49.452;8.466;2022-10-04T05:06:40;6.80;99.90
12460;DHT22;6295;49.452;8.466;2022-10-04T05:10:44;6.80;99.90
12460;DHT22;6295;49.452;8.466;2022-10-04T05:18:54;6.90;99.90
12460;DHT22;6295;49.452;8.466;2022-10-04T05:22:58;6.90;99.90
12460;DHT22;6295;49.452;8.466;2022-10-04T05:31:19;7.00;99.90
12460;DHT22;6295;49.452;8.466;2022-10-04T05:35:29;7.10;99.90
12460;DHT22;6295;49.452;8.466;2022-10-04T05:39:43;7.10;99.90
12460;DHT22;6295;49.452;8.466;2022-10-04T05:43:49;7.20;99.90
12460;DHT22;6295;49.452;8.466;2022-10-04T05:47:55;7.20;99.90
12460;DHT22;6295;49.452;8.466;2022-10-04T05:52:00;7.20;99.90
12460;DHT22;6295;49.452;8.466;2022-10-04T05:56:11;7.30;99.90
12460;DHT22;6295;49.452;8.466;2022-10-04T06:00:17;7.40;99.90
12460;DHT22;6295;49.452;8.466;2022-10-04T06:12:58;7.50;99.90
12460;DHT22;6295;49.452;8.466;2022-10-04T06:17:24;7.60;99.90
12460;DHT22;6295;49.452;8.466;2022-10-04T06:21:36;7.60;99.90
12460;DHT22;6295;49.452;8.466;2022-10-04T06:25:46;7.70;99.90
12460;DHT22;6295;49.452;8.466;2022-10-04T06:29:54;7.80;99.90
12460;DHT22;6295;49.452;8.466;2022-10-04T06:34:12;7.90;99.90
12460;DHT22;6295;49.452;8.466;2022-10-04T06:38:41;8.00;99.90
12460;DHT22;6295;49.452;8.466;2022-10-04T06:42:57;8.10;99.90
12460;DHT22;6295;49.452;8.466;2022-10-04T06:47:18;8.20;99.90
12460;DHT22;6295;49.452;8.466;2022-10-04T06:51:38;8.30;99.90
12460;DHT22;6295;49.452;8.466;2022-10-04T06:56:02;8.40;99.90
12460;DHT22;6295;49.452;8.466;2022-10-04T07:00:08;8.50;99.90
12460;DHT22;6295;49.452;8.466;2022-10-04T07:08:27;8.60;99.90
12460;DHT22;6295;49.452;8.466;2022-10-04T07:12:40;8.70;99.90
12460;DHT22;6295;49.452;8.466;2022-10-04T07:16:47;8.70;99.90
12460;DHT22;6295;49.452;8.466;2022-10-04T07:21:00;8.80;99.90
12460;DHT22;6295;49.452;8.466;2022-10-04T07:33:26;9.00;99.90
12460;DHT22;6295;49.452;8.466;2022-10-04T07:37:31;9.10;99.90
12460;DHT22;6295;49.452;8.466;2022-10-04T07:41:38;9.20;99.90
12460;DHT22;6295;49.452;8.466;2022-10-04T07:45:47;9.30;99.90
12460;DHT22;6295;49.452;8.466;2022-10-04T07:49:51;9.40;99.90
12460;DHT22;6295;49.452;8.466;2022-10-04T07:53:57;9.50;99.90
12460;DHT22;6295;49.452;8.466;2022-10-04T07:58:11;9.50;99.90
12460;DHT22;6295;49.452;8.466;2022-10-04T08:02:25;9.60;99.90
12460;DHT22;6295;49.452;8.466;2022-10-04T08:06:33;9.70;99.90
12460;DHT22;6295;49.452;8.466;2022-10-04T08:10:42;9.70;99.90
12460;DHT22;6295;49.452;8.466;2022-10-04T08:14:54;9.80;99.90
12460;DHT22;6295;49.452;8.466;2022-10-04T08:19:11;9.90;99.90
12460;DHT22;6295;49.452;8.466;2022-10-04T08:23:49;10.00;99.90
12460;DHT22;6295;49.452;8.466;2022-10-04T08:28:01;10.20;99.90
12460;DHT22;6295;49.452;8.466;2022-10-04T08:32:47;10.30;99.90
12460;DHT22;6295;49.452;8.466;2022-10-04T08:37:03;10.40;99.90
12460;DHT22;6295;49.452;8.466;2022-10-04T08:50:42;10.80;99.90
12460;DHT22;6295;49.452;8.466;2022-10-04T09:13:58;11.20;99.90
12460;DHT22;6295;49.452;8.466;2022-10-04T09:18:20;11.20;99.90
12460;DHT22;6295;49.452;8.466;2022-10-04T09:22:42;11.30;99.90
12460;DHT22;6295;49.452;8.466;2022-10-04T09:26:54;11.40;99.90
12460;DHT22;6295;49.452;8.466;2022-10-04T09:35:57;11.70;99.90
12460;DHT22;6295;49.452;8.466;2022-10-04T09:45:05;11.80;99.90
12460;DHT22;6295;49.452;8.466;2022-10-04T09:49:28;11.80;99.90
12460;DHT22;6295;49.452;8.466;2022-10-04T09:53:45;11.90;99.90
12460;DHT22;6295;49.452;8.466;2022-10-04T09:58:12;11.90;99.90
12460;DHT22;6295;49.452;8.466;2022-10-04T10:07:17;12.20;99.90
12460;DHT22;6295;49.452;8.466;2022-10-04T10:11:31;12.40;99.90
12460;DHT22;6295;49.452;8.466;2022-10-04T10:16:00;12.60;99.90
12460;DHT22;6295;49.452;8.466;2022-10-04T10:25:19;12.80;99.90
12460;DHT22;6295;49.452;8.466;2022-10-04T10:29:42;12.90;99.90
12460;DHT22;6295;49.452;8.466;2022-10-04T10:34:14;13.10;99.90
12460;DHT22;6295;49.452;8.466;2022-10-04T10:43:11;13.50;99.90
12460;DHT22;6295;49.452;8.466;2022-10-04T10:47:30;13.60;99.90
12460;DHT22;6295;49.452;8.466;2022-10-04T10:52:08;13.80;99.90
12460;DHT22;6295;49.452;8.466;2022-10-04T11:00:36;14.00;99.90
12460;DHT22;6295;49.452;8.466;2022-10-04T11:04:52;14.20;99.90
12460;DHT22;6295;49.452;8.466;2022-10-04T11:09:33;14.40;99.90
12460;DHT22;6295;49.452;8.466;2022-10-04T11:18:56;14.50;99.90
12460;DHT22;6295;49.452;8.466;2022-10-04T11:41:13;15.10;99.90
12460;DHT22;6295;49.452;8.466;2022-10-04T11:45:39;15.20;99.90
12460;DHT22;6295;49.452;8.466;2022-10-04T11:50:02;15.20;99.90
12460;DHT22;6295;49.452;8.466;2022-10-04T11:54:27;15.30;99.90
12460;DHT22;6295;49.452;8.466;2022-10-04T12:03:16;15.40;99.90
12460;DHT22;6295;49.452;8.466;2022-10-04T12:07:44;15.40;99.90
12460;DHT22;6295;49.452;8.466;2022-10-04T12:12:31;15.50;99.90
12460;DHT22;6295;49.452;8.466;2022-10-04T12:21:38;15.60;99.90
12460;DHT22;6295;49.452;8.466;2022-10-04T12:30:20;15.90;99.90
12460;DHT22;6295;49.452;8.466;2022-10-04T12:34:29;15.90;99.90
12460;DHT22;6295;49.452;8.466;2022-10-04T12:43:05;16.10;99.90
12460;DHT22;6295;49.452;8.466;2022-10-04T12:47:33;16.30;99.90
12460;DHT22;6295;49.452;8.466;2022-10-04T12:51:51;16.40;99.90
12460;DHT22;6295;49.452;8.466;2022-10-04T12:56:05;16.50;99.90
12460;DHT22;6295;49.452;8.466;2022-10-04T13:00:19;16.60;99.90
12460;DHT22;6295;49.452;8.466;2022-10-04T13:04:31;16.70;99.90
12460;DHT22;6295;49.452;8.466;2022-10-04T13:08:50;16.80;99.90
12460;DHT22;6295;49.452;8.466;2022-10-04T13:21:59;17.10;99.90
12460;DHT22;6295;49.452;8.466;2022-10-04T13:30:34;17.30;99.90
12460;DHT22;6295;49.452;8.466;2022-10-04T13:34:45;17.40;99.90
12460;DHT22;6295;49.452;8.466;2022-10-04T13:39:09;17.40;99.90
12460;DHT22;6295;49.452;8.466;2022-10-04T13:47:52;17.60;99.90
12460;DHT22;6295;49.452;8.466;2022-10-04T13:56:50;17.70;99.90
12460;DHT22;6295;49.452;8.466;2022-10-04T14:01:13;17.80;99.90
12460;DHT22;6295;49.452;8.466;2022-10-04T14:10:12;17.90;99.90
12460;DHT22;6295;49.452;8.466;2022-10-04T14:14:39;18.00;99.90
12460;DHT22;6295;49.452;8.466;2022-10-04T14:19:08;18.00;99.90
12460;DHT22;6295;49.452;8.466;2022-10-04T14:23:33;18.10;99.90
12460;DHT22;6295;49.452;8.466;2022-10-04T14:41:06;18.30;99.90
12460;DHT22;6295;49.452;8.466;2022-10-04T14:45:36;18.30;99.90
12460;DHT22;6295;49.452;8.466;2022-10-04T14:49:49;18.40;99.90
12460;DHT22;6295;49.452;8.466;2022-10-04T14:54:00;18.40;99.90
12460;DHT22;6295;49.452;8.466;2022-10-04T14:58:14;18.40;99.90
12460;DHT22;6295;49.452;8.466;2022-10-04T15:02:43;18.40;99.90
12460;DHT22;6295;49.452;8.466;2022-10-04T15:06:51;18.40;99.90
12460;DHT22;6295;49.452;8.466;2022-10-04T15:11:00;18.50;99.90
12460;DHT22;6295;49.452;8.466;2022-10-04T15:20:04;18.50;99.90
12460;DHT22;6295;49.452;8.466;2022-10-04T15:24:24;18.50;99.90
12460;DHT22;6295;49.452;8.466;2022-10-04T15:28:37;18.50;99.90
12460;DHT22;6295;49.452;8.466;2022-10-04T15:32:45;18.50;99.90
12460;DHT22;6295;49.452;8.466;2022-10-04T15:41:05;18.40;99.90
12460;DHT22;6295;49.452;8.466;2022-10-04T15:45:25;18.40;99.90
12460;DHT22;6295;49.452;8.466;2022-10-04T15:54:06;18.40;99.90
12460;DHT22;6295;49.452;8.466;2022-10-04T16:02:48;18.30;99.90
12460;DHT22;6295;49.452;8.466;2022-10-04T16:06:55;18.20;99.90
12460;DHT22;6295;49.452;8.466;2022-10-04T16:15:43;18.00;99.90
12460;DHT22;6295;49.452;8.466;2022-10-04T16:20:13;17.90;99.90
12460;DHT22;6295;49.452;8.466;2022-10-04T16:24:41;17.70;99.90
12460;DHT22;6295;49.452;8.466;2022-10-04T16:37:31;17.00;99.90
12460;DHT22;6295;49.452;8.466;2022-10-04T16:41:39;16.70;99.90
12460;DHT22;6295;49.452;8.466;2022-10-04T16:45:49;16.50;99.90
12460;DHT22;6295;49.452;8.466;2022-10-04T16:50:10;16.20;99.90
12460;DHT22;6295;49.452;8.466;2022-10-04T16:58:50;15.70;99.90
12460;DHT22;6295;49.452;8.466;2022-10-04T17:03:12;15.40;99.90
12460;DHT22;6295;49.452;8.466;2022-10-04T17:07:30;15.10;99.90
12460;DHT22;6295;49.452;8.466;2022-10-04T17:11:42;14.90;99.90
12460;DHT22;6295;49.452;8.466;2022-10-04T17:19:54;14.70;99.90
12460;DHT22;6295;49.452;8.466;2022-10-04T17:24:19;14.50;99.90
12460;DHT22;6295;49.452;8.466;2022-10-04T17:28:28;14.30;99.90
12460;DHT22;6295;49.452;8.466;2022-10-04T17:32:41;14.20;99.90
12460;DHT22;6295;49.452;8.466;2022-10-04T17:36:48;14.00;99.90
12460;DHT22;6295;49.452;8.466;2022-10-04T17:40:57;13.90;99.90
12460;DHT22;6295;49.452;8.466;2022-10-04T17:49:44;13.60;99.90
12460;DHT22;6295;49.452;8.466;2022-10-04T17:54:11;13.50;99.90
12460;DHT22;6295;49.452;8.466;2022-10-04T17:58:41;13.30;99.90
12460;DHT22;6295;49.452;8.466;2022-10-04T18:03:07;13.20;99.90
12460;DHT22;6295;49.452;8.466;2022-10-04T18:07:17;13.10;99.90
12460;DHT22;6295;49.452;8.466;2022-10-04T18:11:29;12.90;99.90
12460;DHT22;6295;49.452;8.466;2022-10-04T18:24:17;12.70;99.90
12460;DHT22;6295;49.452;8.466;2022-10-04T18:28:22;12.60;99.90
12460;DHT22;6295;49.452;8.466;2022-10-04T18:32:38;12.50;99.90
12460;DHT22;6295;49.452;8.466;2022-10-04T18:36:51;12.40;99.90
12460;DHT22;6295;49.452;8.466;2022-10-04T18:40:59;12.30;99.90
12460;DHT22;6295;49.452;8.466;2022-10-04T18:45:14;12.20;99.90
12460;DHT22;6295;49.452;8.466;2022-10-04T18:49:23;12.10;99.90
12460;DHT22;6295;49.452;8.466;2022-10-04T18:57:41;12.00;99.90
12460;DHT22;6295;49.452;8.466;2022-10-04T19:02:06;11.90;99.90
12460;DHT22;6295;49.452;8.466;2022-10-04T19:06:17;11.80;99.90
12460;DHT22;6295;49.452;8.466;2022-10-04T19:18:54;11.60;99.90
12460;DHT22;6295;49.452;8.466;2022-10-04T19:27:09;11.50;99.90
12460;DHT22;6295;49.452;8.466;2022-10-04T19:31:22;11.40;99.90
12460;DHT22;6295;49.452;8.466;2022-10-04T19:35:47;11.30;99.90
12460;DHT22;6295;49.452;8.466;2022-10-04T19:44:04;11.20;99.90
12460;DHT22;6295;49.452;8.466;2022-10-04T19:48:16;11.20;99.90
12460;DHT22;6295;49.452;8.466;2022-10-04T19:52:22;11.20;99.90
12460;DHT22;6295;49.452;8.466;2022-10-04T19:56:32;11.10;99.90
12460;DHT22;6295;49.452;8.466;2022-10-04T20:00:37;11.00;99.90
12460;DHT22;6295;49.452;8.466;2022-10-04T20:08:53;10.90;99.90
12460;DHT22;6295;49.452;8.466;2022-10-04T20:17:31;10.80;99.90
12460;DHT22;6295;49.452;8.466;2022-10-04T20:29:59;10.70;99.90
12460;DHT22;6295;49.452;8.466;2022-10-04T20:34:31;10.60;99.90
12460;DHT22;6295;49.452;8.466;2022-10-04T20:38:47;10.60;99.90
12460;DHT22;6295;49.452;8.466;2022-10-04T20:51:20;10.40;99.90
12460;DHT22;6295;49.452;8.466;2022-10-04T20:55:25;10.40;99.90
12460;DHT22;6295;49.452;8.466;2022-10-04T21:07:37;10.20;99.90
12460;DHT22;6295;49.452;8.466;2022-10-04T21:19:58;10.10;99.90
12460;DHT22;6295;49.452;8.466;2022-10-04T21:28:32;10.10;99.90
12460;DHT22;6295;49.452;8.466;2022-10-04T21:32:35;10.00;99.90
12460;DHT22;6295;49.452;8.466;2022-10-04T21:36:39;10.00;99.90
12460;DHT22;6295;49.452;8.466;2022-10-04T21:40:42;9.90;99.90
12460;DHT22;6295;49.452;8.466;2022-10-04T21:44:45;9.90;99.90
12460;DHT22;6295;49.452;8.466;2022-10-04T21:48:47;9.80;99.90
12460;DHT22;6295;49.452;8.466;2022-10-04T21:56:53;9.80;99.90
12460;DHT22;6295;49.452;8.466;2022-10-04T22:00:55;9.70;99.90
12460;DHT22;6295;49.452;8.466;2022-10-04T22:04:58;9.70;99.90
12460;DHT22;6295;49.452;8.466;2022-10-04T22:09:01;9.70;99.90
12460;DHT22;6295;49.452;8.466;2022-10-04T22:13:04;9.70;99.90
12460;DHT22;6295;49.452;8.466;2022-10-04T22:17:06;9.60;99.90
12460;DHT22;6295;49.452;8.466;2022-10-04T22:21:08;9.60;99.90
12460;DHT22;6295;49.452;8.466;2022-10-04T22:29:17;9.50;99.90
12460;DHT22;6295;49.452;8.466;2022-10-04T22:33:33;9.50;99.90
12460;DHT22;6295;49.452;8.466;2022-10-04T22:37:36;9.50;99.90
12460;DHT22;6295;49.452;8.466;2022-10-04T22:41:41;9.50;99.90
12460;DHT22;6295;49.452;8.466;2022-10-04T22:45:44;9.50;99.90
12460;DHT22;6295;49.452;8.466;2022-10-04T22:49:49;9.50;99.90
12460;DHT22;6295;49.452;8.466;2022-10-04T22:57:57;9.50;99.90
12460;DHT22;6295;49.452;8.466;2022-10-04T23:06:07;9.70;99.90
12460;DHT22;6295;49.452;8.466;2022-10-04T23:10:15;9.80;99.90
12460;DHT22;6295;49.452;8.466;2022-10-04T23:22:26;9.80;99.90
12460;DHT22;6295;49.452;8.466;2022-10-04T23:26:35;9.90;99.90
12460;DHT22;6295;49.452;8.466;2022-10-04T23:30:39;10.00;99.90
12460;DHT22;6295;49.452;8.466;2022-10-04T23:34:43;9.90;99.90
12460;DHT22;6295;49.452;8.466;2022-10-04T23:38:48;10.00;99.90
12460;DHT22;6295;49.452;8.466;2022-10-04T23:46:57;10.00;99.90
12460;DHT22;6295;49.452;8.466;2022-10-04T23:50:59;10.00;99.90
12460;DHT22;6295;49.452;8.466;2022-10-04T23:55:03;10.00;99.90
12460;DHT22;6295;49.452;8.466;2022-10-04T23:59:14;10.00;99.90
